sensor_id;sensor_type;location;lat;lon;timestamp;P1;durP1;ratioP1;P2;durP2;ratioP2
8044;SDS011;4065;48.754;9.982;2024-03-06T00:01:20;21.25;;;18.50;;
8044;SDS011;4065;48.754;9.982;2024-03-06T00:04:42;22.73;;;18.40;;
8044;SDS011;4065;48.754;9.982;2024-03-06T00:08:04;29.13;;;20.95;;
8044;SDS011;4065;48.754;9.982;2024-03-06T00:11:28;24.35;;;21.13;;
8044;SDS011;4065;48.754;9.982;2024-03-06T00:14:50;28.45;;;22.55;;
8044;SDS011;4065;48.754;9.982;2024-03-06T00:18:11;31.00;;;24.52;;
8044;SDS011;4065;48.754;9.982;2024-03-06T00:21:33;32.35;;;25.15;;
8044;SDS011;4065;48.754;9.982;2024-03-06T00:24:56;29.65;;;24.85;;
8044;SDS011;4065;48.754;9.982;2024-03-06T00:28:19;38.28;;;27.58;;
8044;SDS011;4065;48.754;9.982;2024-03-06T00:31:42;35.08;;;26.05;;
8044;SDS011;4065;48.754;9.982;2024-03-06T00:35:04;33.10;;;25.60;;
8044;SDS011;4065;48.754;9.982;2024-03-06T00:38:26;33.72;;;25.48;;
8044;SDS011;4065;48.754;9.982;2024-03-06T00:41:48;37.33;;;26.08;;
8044;SDS011;4065;48.754;9.982;2024-03-06T00:45:11;34.88;;;24.60;;
8044;SDS011;4065;48.754;9.982;2024-03-06T00:48:33;34.60;;;23.80;;
8044;SDS011;4065;48.754;9.982;2024-03-06T00:51:54;27.58;;;22.23;;
8044;SDS011;4065;48.754;9.982;2024-03-06T00:55:16;27.73;;;21.15;;
8044;SDS011;4065;48.754;9.982;2024-03-06T00:58:38;28.88;;;21.58;;
8044;SDS011;4065;48.754;9.982;2024-03-06T01:02:01;25.92;;;20.98;;
8044;SDS011;4065;48.754;9.982;2024-03-06T01:05:23;31.20;;;21.00;;
8044;SDS011;4065;48.754;9.982;2024-03-06T01:08:44;29.90;;;22.05;;
8044;SDS011;4065;48.754;9.982;2024-03-06T01:12:06;25.77;;;19.50;;
8044;SDS011;4065;48.754;9.982;2024-03-06T01:15:28;26.23;;;21.20;;
8044;SDS011;4065;48.754;9.982;2024-03-06T01:18:51;25.25;;;19.25;;
8044;SDS011;4065;48.754;9.982;2024-03-06T01:22:12;28.23;;;20.55;;
8044;SDS011;4065;48.754;9.982;2024-03-06T01:25:34;27.13;;;19.85;;
8044;SDS011;4065;48.754;9.982;2024-03-06T01:28:56;28.77;;;22.00;;
8044;SDS011;4065;48.754;9.982;2024-03-06T01:32:18;31.48;;;21.98;;
8044;SDS011;4065;48.754;9.982;2024-03-06T01:35:41;27.58;;;21.33;;
8044;SDS011;4065;48.754;9.982;2024-03-06T01:39:03;26.50;;;21.58;;
8044;SDS011;4065;48.754;9.982;2024-03-06T01:42:24;30.40;;;20.27;;
8044;SDS011;4065;48.754;9.982;2024-03-06T01:45:47;26.27;;;19.40;;
8044;SDS011;4065;48.754;9.982;2024-03-06T01:49:08;30.17;;;20.02;;
8044;SDS011;4065;48.754;9.982;2024-03-06T01:52:31;28.55;;;20.95;;
8044;SDS011;4065;48.754;9.982;2024-03-06T01:55:53;25.85;;;19.48;;
8044;SDS011;4065;48.754;9.982;2024-03-06T01:59:16;24.95;;;18.25;;
8044;SDS011;4065;48.754;9.982;2024-03-06T02:02:38;26.05;;;19.88;;
8044;SDS011;4065;48.754;9.982;2024-03-06T02:06:00;24.55;;;19.08;;
8044;SDS011;4065;48.754;9.982;2024-03-06T02:09:24;25.60;;;18.70;;
8044;SDS011;4065;48.754;9.982;2024-03-06T02:12:45;24.30;;;18.13;;
8044;SDS011;4065;48.754;9.982;2024-03-06T02:16:09;25.30;;;19.20;;
8044;SDS011;4065;48.754;9.982;2024-03-06T02:19:39;26.45;;;19.02;;
8044;SDS011;4065;48.754;9.982;2024-03-06T02:23:03;21.60;;;17.48;;
8044;SDS011;4065;48.754;9.982;2024-03-06T02:26:24;21.15;;;17.92;;
8044;SDS011;4065;48.754;9.982;2024-03-06T02:29:46;24.73;;;18.40;;
8044;SDS011;4065;48.754;9.982;2024-03-06T02:33:08;22.73;;;17.45;;
8044;SDS011;4065;48.754;9.982;2024-03-06T02:36:29;24.65;;;18.45;;
8044;SDS011;4065;48.754;9.982;2024-03-06T02:39:54;24.33;;;19.38;;
8044;SDS011;4065;48.754;9.982;2024-03-06T02:43:15;27.05;;;19.70;;
8044;SDS011;4065;48.754;9.982;2024-03-06T02:46:37;28.63;;;19.58;;
8044;SDS011;4065;48.754;9.982;2024-03-06T02:49:59;27.40;;;21.42;;
8044;SDS011;4065;48.754;9.982;2024-03-06T02:53:20;31.95;;;21.83;;
8044;SDS011;4065;48.754;9.982;2024-03-06T02:56:43;31.42;;;21.40;;
8044;SDS011;4065;48.754;9.982;2024-03-06T03:00:06;29.55;;;22.30;;
8044;SDS011;4065;48.754;9.982;2024-03-06T03:03:33;32.45;;;22.42;;
8044;SDS011;4065;48.754;9.982;2024-03-06T03:06:55;25.88;;;21.02;;
8044;SDS011;4065;48.754;9.982;2024-03-06T03:10:17;26.98;;;21.00;;
8044;SDS011;4065;48.754;9.982;2024-03-06T03:13:40;29.60;;;21.20;;
8044;SDS011;4065;48.754;9.982;2024-03-06T03:17:01;27.70;;;20.17;;
8044;SDS011;4065;48.754;9.982;2024-03-06T03:20:23;24.08;;;19.60;;
8044;SDS011;4065;48.754;9.982;2024-03-06T03:23:45;25.10;;;19.83;;
8044;SDS011;4065;48.754;9.982;2024-03-06T03:27:06;28.42;;;19.77;;
8044;SDS011;4065;48.754;9.982;2024-03-06T03:30:30;25.77;;;20.17;;
8044;SDS011;4065;48.754;9.982;2024-03-06T03:33:52;28.75;;;19.98;;
8044;SDS011;4065;48.754;9.982;2024-03-06T03:37:14;27.90;;;20.15;;
8044;SDS011;4065;48.754;9.982;2024-03-06T03:40:36;29.38;;;20.80;;
8044;SDS011;4065;48.754;9.982;2024-03-06T03:43:57;26.08;;;19.05;;
8044;SDS011;4065;48.754;9.982;2024-03-06T03:47:20;25.98;;;20.23;;
8044;SDS011;4065;48.754;9.982;2024-03-06T03:50:42;28.85;;;20.85;;
8044;SDS011;4065;48.754;9.982;2024-03-06T03:54:05;29.05;;;20.48;;
8044;SDS011;4065;48.754;9.982;2024-03-06T03:57:27;31.58;;;21.05;;
8044;SDS011;4065;48.754;9.982;2024-03-06T04:00:49;24.50;;;19.35;;
8044;SDS011;4065;48.754;9.982;2024-03-06T04:04:14;27.55;;;21.40;;
8044;SDS011;4065;48.754;9.982;2024-03-06T04:07:36;26.77;;;21.25;;
8044;SDS011;4065;48.754;9.982;2024-03-06T04:10:58;27.35;;;20.48;;
8044;SDS011;4065;48.754;9.982;2024-03-06T04:14:20;29.98;;;20.83;;
8044;SDS011;4065;48.754;9.982;2024-03-06T04:17:42;30.70;;;21.60;;
8044;SDS011;4065;48.754;9.982;2024-03-06T04:21:05;27.73;;;20.75;;
8044;SDS011;4065;48.754;9.982;2024-03-06T04:24:27;29.33;;;19.30;;
8044;SDS011;4065;48.754;9.982;2024-03-06T04:27:49;23.98;;;18.13;;
8044;SDS011;4065;48.754;9.982;2024-03-06T04:31:11;27.10;;;20.17;;
8044;SDS011;4065;48.754;9.982;2024-03-06T04:34:33;26.02;;;19.60;;
8044;SDS011;4065;48.754;9.982;2024-03-06T04:37:56;26.13;;;18.63;;
8044;SDS011;4065;48.754;9.982;2024-03-06T04:41:18;27.98;;;19.20;;
8044;SDS011;4065;48.754;9.982;2024-03-06T04:44:40;24.05;;;18.92;;
8044;SDS011;4065;48.754;9.982;2024-03-06T04:48:03;27.50;;;21.52;;
8044;SDS011;4065;48.754;9.982;2024-03-06T04:51:26;22.40;;;17.95;;
8044;SDS011;4065;48.754;9.982;2024-03-06T04:54:49;23.52;;;17.38;;
8044;SDS011;4065;48.754;9.982;2024-03-06T04:58:10;22.80;;;16.10;;
8044;SDS011;4065;48.754;9.982;2024-03-06T05:01:32;24.98;;;15.60;;
8044;SDS011;4065;48.754;9.982;2024-03-06T05:04:54;21.13;;;15.65;;
8044;SDS011;4065;48.754;9.982;2024-03-06T05:08:16;24.60;;;17.20;;
8044;SDS011;4065;48.754;9.982;2024-03-06T05:11:39;22.35;;;15.35;;
8044;SDS011;4065;48.754;9.982;2024-03-06T05:15:00;21.73;;;16.58;;
8044;SDS011;4065;48.754;9.982;2024-03-06T05:18:23;19.65;;;15.43;;
8044;SDS011;4065;48.754;9.982;2024-03-06T05:21:44;20.95;;;15.77;;
8044;SDS011;4065;48.754;9.982;2024-03-06T05:25:06;23.00;;;16.83;;
8044;SDS011;4065;48.754;9.982;2024-03-06T05:28:30;20.90;;;14.70;;
8044;SDS011;4065;48.754;9.982;2024-03-06T05:31:51;22.40;;;16.50;;
8044;SDS011;4065;48.754;9.982;2024-03-06T05:35:13;23.92;;;16.48;;
8044;SDS011;4065;48.754;9.982;2024-03-06T05:38:35;22.15;;;15.48;;
8044;SDS011;4065;48.754;9.982;2024-03-06T05:41:59;24.95;;;16.90;;
8044;SDS011;4065;48.754;9.982;2024-03-06T05:45:23;25.02;;;17.40;;
8044;SDS011;4065;48.754;9.982;2024-03-06T05:48:45;21.90;;;16.30;;
8044;SDS011;4065;48.754;9.982;2024-03-06T05:52:06;22.23;;;15.55;;
8044;SDS011;4065;48.754;9.982;2024-03-06T05:55:28;22.33;;;15.95;;
8044;SDS011;4065;48.754;9.982;2024-03-06T05:58:50;22.40;;;16.30;;
8044;SDS011;4065;48.754;9.982;2024-03-06T06:02:13;23.25;;;16.10;;
8044;SDS011;4065;48.754;9.982;2024-03-06T06:05:36;25.70;;;17.88;;
8044;SDS011;4065;48.754;9.982;2024-03-06T06:08:59;25.67;;;17.50;;
8044;SDS011;4065;48.754;9.982;2024-03-06T06:12:21;24.13;;;16.83;;
8044;SDS011;4065;48.754;9.982;2024-03-06T06:15:42;26.73;;;17.70;;
8044;SDS011;4065;48.754;9.982;2024-03-06T06:19:06;28.95;;;18.42;;
8044;SDS011;4065;48.754;9.982;2024-03-06T06:22:28;27.80;;;18.27;;
8044;SDS011;4065;48.754;9.982;2024-03-06T06:25:49;25.88;;;18.40;;
8044;SDS011;4065;48.754;9.982;2024-03-06T06:29:11;23.20;;;17.10;;
8044;SDS011;4065;48.754;9.982;2024-03-06T06:32:32;29.80;;;18.42;;
8044;SDS011;4065;48.754;9.982;2024-03-06T06:35:56;26.23;;;18.17;;
8044;SDS011;4065;48.754;9.982;2024-03-06T06:39:17;31.15;;;20.05;;
8044;SDS011;4065;48.754;9.982;2024-03-06T06:42:43;32.85;;;19.77;;
8044;SDS011;4065;48.754;9.982;2024-03-06T06:46:05;30.73;;;19.75;;
8044;SDS011;4065;48.754;9.982;2024-03-06T06:49:27;34.13;;;20.13;;
8044;SDS011;4065;48.754;9.982;2024-03-06T06:52:50;28.23;;;18.42;;
8044;SDS011;4065;48.754;9.982;2024-03-06T06:56:14;27.92;;;18.30;;
8044;SDS011;4065;48.754;9.982;2024-03-06T06:59:36;27.55;;;17.45;;
8044;SDS011;4065;48.754;9.982;2024-03-06T07:02:57;27.70;;;17.88;;
8044;SDS011;4065;48.754;9.982;2024-03-06T07:06:20;27.30;;;17.30;;
8044;SDS011;4065;48.754;9.982;2024-03-06T07:09:43;26.92;;;17.83;;
8044;SDS011;4065;48.754;9.982;2024-03-06T07:13:05;28.05;;;17.20;;
8044;SDS011;4065;48.754;9.982;2024-03-06T07:16:27;27.42;;;17.30;;
8044;SDS011;4065;48.754;9.982;2024-03-06T07:19:49;28.67;;;17.35;;
8044;SDS011;4065;48.754;9.982;2024-03-06T07:23:12;28.90;;;17.45;;
8044;SDS011;4065;48.754;9.982;2024-03-06T07:26:35;27.35;;;18.08;;
8044;SDS011;4065;48.754;9.982;2024-03-06T07:29:57;25.98;;;17.83;;
8044;SDS011;4065;48.754;9.982;2024-03-06T07:33:19;28.65;;;18.30;;
8044;SDS011;4065;48.754;9.982;2024-03-06T07:36:44;28.25;;;17.50;;
8044;SDS011;4065;48.754;9.982;2024-03-06T07:40:07;26.90;;;17.92;;
8044;SDS011;4065;48.754;9.982;2024-03-06T07:43:31;22.70;;;16.08;;
8044;SDS011;4065;48.754;9.982;2024-03-06T07:46:53;26.98;;;16.42;;
8044;SDS011;4065;48.754;9.982;2024-03-06T07:50:15;27.70;;;16.58;;
8044;SDS011;4065;48.754;9.982;2024-03-06T07:53:39;30.48;;;18.42;;
8044;SDS011;4065;48.754;9.982;2024-03-06T07:57:01;26.45;;;17.63;;
8044;SDS011;4065;48.754;9.982;2024-03-06T08:00:24;33.97;;;20.27;;
8044;SDS011;4065;48.754;9.982;2024-03-06T08:03:47;34.05;;;19.85;;
8044;SDS011;4065;48.754;9.982;2024-03-06T08:07:09;31.58;;;19.63;;
8044;SDS011;4065;48.754;9.982;2024-03-06T08:10:31;34.95;;;20.10;;
8044;SDS011;4065;48.754;9.982;2024-03-06T08:13:56;30.63;;;20.15;;
8044;SDS011;4065;48.754;9.982;2024-03-06T08:17:19;32.75;;;20.63;;
8044;SDS011;4065;48.754;9.982;2024-03-06T08:20:41;36.85;;;21.75;;
8044;SDS011;4065;48.754;9.982;2024-03-06T08:24:03;31.77;;;21.30;;
8044;SDS011;4065;48.754;9.982;2024-03-06T08:27:25;34.35;;;21.13;;
8044;SDS011;4065;48.754;9.982;2024-03-06T08:30:46;28.55;;;17.80;;
8044;SDS011;4065;48.754;9.982;2024-03-06T08:34:09;34.10;;;19.25;;
8044;SDS011;4065;48.754;9.982;2024-03-06T08:37:31;30.20;;;18.33;;
8044;SDS011;4065;48.754;9.982;2024-03-06T08:40:53;28.15;;;19.00;;
8044;SDS011;4065;48.754;9.982;2024-03-06T08:44:15;29.92;;;18.08;;
8044;SDS011;4065;48.754;9.982;2024-03-06T08:47:36;31.00;;;18.88;;
8044;SDS011;4065;48.754;9.982;2024-03-06T08:51:00;28.52;;;16.65;;
8044;SDS011;4065;48.754;9.982;2024-03-06T08:54:21;24.70;;;16.30;;
8044;SDS011;4065;48.754;9.982;2024-03-06T08:57:43;28.98;;;18.45;;
8044;SDS011;4065;48.754;9.982;2024-03-06T09:01:05;28.08;;;17.15;;
8044;SDS011;4065;48.754;9.982;2024-03-06T09:04:27;25.30;;;16.63;;
8044;SDS011;4065;48.754;9.982;2024-03-06T09:07:50;25.05;;;15.68;;
8044;SDS011;4065;48.754;9.982;2024-03-06T09:11:12;22.98;;;14.45;;
8044;SDS011;4065;48.754;9.982;2024-03-06T09:14:35;25.58;;;15.20;;
8044;SDS011;4065;48.754;9.982;2024-03-06T09:17:57;21.52;;;14.40;;
8044;SDS011;4065;48.754;9.982;2024-03-06T09:21:18;21.00;;;13.60;;
8044;SDS011;4065;48.754;9.982;2024-03-06T09:24:43;19.30;;;12.63;;
8044;SDS011;4065;48.754;9.982;2024-03-06T09:28:05;20.40;;;13.30;;
8044;SDS011;4065;48.754;9.982;2024-03-06T09:31:29;20.45;;;14.25;;
8044;SDS011;4065;48.754;9.982;2024-03-06T09:34:50;18.27;;;14.27;;
8044;SDS011;4065;48.754;9.982;2024-03-06T09:38:12;19.70;;;13.50;;
8044;SDS011;4065;48.754;9.982;2024-03-06T09:41:36;20.55;;;13.85;;
8044;SDS011;4065;48.754;9.982;2024-03-06T09:44:59;19.88;;;13.93;;
8044;SDS011;4065;48.754;9.982;2024-03-06T09:48:24;17.25;;;12.10;;
8044;SDS011;4065;48.754;9.982;2024-03-06T09:51:48;16.52;;;11.70;;
8044;SDS011;4065;48.754;9.982;2024-03-06T09:55:10;16.90;;;12.18;;
8044;SDS011;4065;48.754;9.982;2024-03-06T09:58:34;18.25;;;11.70;;
8044;SDS011;4065;48.754;9.982;2024-03-06T10:01:57;17.40;;;12.40;;
8044;SDS011;4065;48.754;9.982;2024-03-06T10:05:22;17.45;;;13.10;;
8044;SDS011;4065;48.754;9.982;2024-03-06T10:08:44;20.02;;;13.13;;
8044;SDS011;4065;48.754;9.982;2024-03-06T10:12:06;19.23;;;13.82;;
8044;SDS011;4065;48.754;9.982;2024-03-06T10:15:30;21.92;;;14.68;;
8044;SDS011;4065;48.754;9.982;2024-03-06T10:18:56;16.33;;;13.23;;
8044;SDS011;4065;48.754;9.982;2024-03-06T10:22:20;18.65;;;13.20;;
8044;SDS011;4065;48.754;9.982;2024-03-06T10:25:44;20.00;;;16.13;;
8044;SDS011;4065;48.754;9.982;2024-03-06T10:29:11;17.35;;;12.30;;
8044;SDS011;4065;48.754;9.982;2024-03-06T10:32:36;16.90;;;12.27;;
8044;SDS011;4065;48.754;9.982;2024-03-06T10:35:58;16.77;;;11.88;;
8044;SDS011;4065;48.754;9.982;2024-03-06T10:39:20;16.15;;;12.50;;
8044;SDS011;4065;48.754;9.982;2024-03-06T10:42:42;19.42;;;14.38;;
8044;SDS011;4065;48.754;9.982;2024-03-06T10:46:05;16.65;;;13.05;;
8044;SDS011;4065;48.754;9.982;2024-03-06T10:49:29;16.95;;;11.88;;
8044;SDS011;4065;48.754;9.982;2024-03-06T10:52:52;14.35;;;11.75;;
8044;SDS011;4065;48.754;9.982;2024-03-06T10:56:15;18.95;;;13.27;;
8044;SDS011;4065;48.754;9.982;2024-03-06T10:59:38;18.15;;;12.05;;
8044;SDS011;4065;48.754;9.982;2024-03-06T11:03:02;18.00;;;13.23;;
8044;SDS011;4065;48.754;9.982;2024-03-06T11:06:29;19.48;;;14.27;;
8044;SDS011;4065;48.754;9.982;2024-03-06T11:09:51;22.15;;;15.63;;
8044;SDS011;4065;48.754;9.982;2024-03-06T11:13:22;24.13;;;15.93;;
8044;SDS011;4065;48.754;9.982;2024-03-06T11:17:01;22.65;;;15.45;;
8044;SDS011;4065;48.754;9.982;2024-03-06T11:20:23;18.88;;;14.52;;
8044;SDS011;4065;48.754;9.982;2024-03-06T11:27:26;19.70;;;15.05;;
8044;SDS011;4065;48.754;9.982;2024-03-06T11:30:48;22.40;;;15.48;;
8044;SDS011;4065;48.754;9.982;2024-03-06T11:34:10;23.67;;;16.60;;
8044;SDS011;4065;48.754;9.982;2024-03-06T11:37:35;24.08;;;15.40;;
8044;SDS011;4065;48.754;9.982;2024-03-06T11:40:59;24.88;;;16.20;;
8044;SDS011;4065;48.754;9.982;2024-03-06T11:44:22;22.92;;;15.23;;
8044;SDS011;4065;48.754;9.982;2024-03-06T11:47:57;27.42;;;15.90;;
8044;SDS011;4065;48.754;9.982;2024-03-06T11:51:20;23.52;;;15.77;;
8044;SDS011;4065;48.754;9.982;2024-03-06T11:54:43;28.92;;;16.85;;
8044;SDS011;4065;48.754;9.982;2024-03-06T11:58:04;27.60;;;16.20;;
8044;SDS011;4065;48.754;9.982;2024-03-06T12:01:32;26.25;;;15.82;;
8044;SDS011;4065;48.754;9.982;2024-03-06T12:04:54;28.75;;;17.05;;
8044;SDS011;4065;48.754;9.982;2024-03-06T12:08:18;19.65;;;13.15;;
8044;SDS011;4065;48.754;9.982;2024-03-06T12:11:40;26.95;;;19.17;;
8044;SDS011;4065;48.754;9.982;2024-03-06T12:15:04;21.20;;;13.55;;
8044;SDS011;4065;48.754;9.982;2024-03-06T12:18:30;20.15;;;14.20;;
8044;SDS011;4065;48.754;9.982;2024-03-06T12:21:52;24.45;;;14.43;;
8044;SDS011;4065;48.754;9.982;2024-03-06T12:25:17;21.15;;;15.40;;
8044;SDS011;4065;48.754;9.982;2024-03-06T12:28:39;38.13;;;17.10;;
8044;SDS011;4065;48.754;9.982;2024-03-06T12:32:02;28.05;;;15.75;;
8044;SDS011;4065;48.754;9.982;2024-03-06T12:35:29;34.13;;;17.02;;
8044;SDS011;4065;48.754;9.982;2024-03-06T12:38:53;29.15;;;17.70;;
8044;SDS011;4065;48.754;9.982;2024-03-06T12:42:18;58.58;;;19.08;;
8044;SDS011;4065;48.754;9.982;2024-03-06T12:45:40;105.22;;;21.75;;
8044;SDS011;4065;48.754;9.982;2024-03-06T12:49:02;42.00;;;18.25;;
8044;SDS011;4065;48.754;9.982;2024-03-06T12:52:25;68.85;;;20.98;;
8044;SDS011;4065;48.754;9.982;2024-03-06T12:55:47;56.75;;;20.02;;
8044;SDS011;4065;48.754;9.982;2024-03-06T12:59:11;167.88;;;27.42;;
8044;SDS011;4065;48.754;9.982;2024-03-06T13:02:33;106.38;;;24.63;;
8044;SDS011;4065;48.754;9.982;2024-03-06T13:05:54;90.18;;;20.85;;
8044;SDS011;4065;48.754;9.982;2024-03-06T13:09:18;67.93;;;19.83;;
8044;SDS011;4065;48.754;9.982;2024-03-06T13:12:39;84.32;;;22.65;;
8044;SDS011;4065;48.754;9.982;2024-03-06T13:16:01;32.60;;;17.92;;
8044;SDS011;4065;48.754;9.982;2024-03-06T13:19:23;33.72;;;19.63;;
8044;SDS011;4065;48.754;9.982;2024-03-06T13:22:54;29.50;;;17.38;;
8044;SDS011;4065;48.754;9.982;2024-03-06T13:26:19;40.45;;;19.48;;
8044;SDS011;4065;48.754;9.982;2024-03-06T13:29:56;36.30;;;20.95;;
8044;SDS011;4065;48.754;9.982;2024-03-06T13:33:28;41.22;;;19.80;;
8044;SDS011;4065;48.754;9.982;2024-03-06T13:36:51;36.33;;;19.30;;
8044;SDS011;4065;48.754;9.982;2024-03-06T13:40:35;29.15;;;15.77;;
8044;SDS011;4065;48.754;9.982;2024-03-06T13:44:07;33.22;;;18.38;;
8044;SDS011;4065;48.754;9.982;2024-03-06T13:47:33;45.35;;;23.45;;
8044;SDS011;4065;48.754;9.982;2024-03-06T13:51:11;52.28;;;26.77;;
8044;SDS011;4065;48.754;9.982;2024-03-06T13:54:55;54.20;;;28.48;;
8044;SDS011;4065;48.754;9.982;2024-03-06T13:58:24;57.15;;;27.50;;
8044;SDS011;4065;48.754;9.982;2024-03-06T14:02:05;58.05;;;29.00;;
8044;SDS011;4065;48.754;9.982;2024-03-06T14:05:34;57.15;;;30.13;;
8044;SDS011;4065;48.754;9.982;2024-03-06T14:09:01;55.28;;;28.73;;
8044;SDS011;4065;48.754;9.982;2024-03-06T14:12:48;54.92;;;27.52;;
8044;SDS011;4065;48.754;9.982;2024-03-06T14:16:16;55.85;;;28.38;;
8044;SDS011;4065;48.754;9.982;2024-03-06T14:19:47;50.45;;;25.17;;
8044;SDS011;4065;48.754;9.982;2024-03-06T14:23:14;46.28;;;25.27;;
8044;SDS011;4065;48.754;9.982;2024-03-06T14:26:44;54.58;;;28.67;;
8044;SDS011;4065;48.754;9.982;2024-03-06T14:30:10;40.47;;;24.42;;
8044;SDS011;4065;48.754;9.982;2024-03-06T14:33:34;47.53;;;26.10;;
8044;SDS011;4065;48.754;9.982;2024-03-06T14:37:03;43.97;;;26.30;;
8044;SDS011;4065;48.754;9.982;2024-03-06T14:40:31;41.50;;;22.52;;
8044;SDS011;4065;48.754;9.982;2024-03-06T14:43:58;49.85;;;26.65;;
8044;SDS011;4065;48.754;9.982;2024-03-06T14:47:20;56.05;;;31.10;;
8044;SDS011;4065;48.754;9.982;2024-03-06T14:50:41;56.83;;;28.75;;
8044;SDS011;4065;48.754;9.982;2024-03-06T14:54:05;62.72;;;30.33;;
8044;SDS011;4065;48.754;9.982;2024-03-06T14:57:26;63.85;;;38.75;;
8044;SDS011;4065;48.754;9.982;2024-03-06T15:00:51;63.17;;;31.95;;
8044;SDS011;4065;48.754;9.982;2024-03-06T15:04:13;67.25;;;35.63;;
8044;SDS011;4065;48.754;9.982;2024-03-06T15:07:34;70.00;;;35.42;;
8044;SDS011;4065;48.754;9.982;2024-03-06T15:10:57;70.47;;;33.17;;
8044;SDS011;4065;48.754;9.982;2024-03-06T15:14:19;57.63;;;30.98;;
8044;SDS011;4065;48.754;9.982;2024-03-06T15:17:41;61.55;;;31.10;;
8044;SDS011;4065;48.754;9.982;2024-03-06T15:21:03;56.58;;;32.08;;
8044;SDS011;4065;48.754;9.982;2024-03-06T15:24:25;64.32;;;37.45;;
8044;SDS011;4065;48.754;9.982;2024-03-06T15:27:50;62.38;;;31.02;;
8044;SDS011;4065;48.754;9.982;2024-03-06T15:31:12;65.30;;;33.03;;
8044;SDS011;4065;48.754;9.982;2024-03-06T15:34:34;63.00;;;33.22;;
8044;SDS011;4065;48.754;9.982;2024-03-06T15:37:58;67.50;;;34.50;;
8044;SDS011;4065;48.754;9.982;2024-03-06T15:41:20;67.40;;;32.72;;
8044;SDS011;4065;48.754;9.982;2024-03-06T15:44:43;64.22;;;31.75;;
8044;SDS011;4065;48.754;9.982;2024-03-06T15:48:05;64.07;;;31.27;;
8044;SDS011;4065;48.754;9.982;2024-03-06T15:51:27;62.22;;;32.63;;
8044;SDS011;4065;48.754;9.982;2024-03-06T15:54:48;69.25;;;33.95;;
8044;SDS011;4065;48.754;9.982;2024-03-06T15:58:10;66.88;;;34.42;;
8044;SDS011;4065;48.754;9.982;2024-03-06T16:01:33;63.03;;;33.35;;
8044;SDS011;4065;48.754;9.982;2024-03-06T16:04:55;69.82;;;36.85;;
8044;SDS011;4065;48.754;9.982;2024-03-06T16:08:17;67.97;;;36.20;;
8044;SDS011;4065;48.754;9.982;2024-03-06T16:11:39;72.63;;;35.67;;
8044;SDS011;4065;48.754;9.982;2024-03-06T16:15:01;76.47;;;35.78;;
8044;SDS011;4065;48.754;9.982;2024-03-06T16:18:25;75.55;;;37.53;;
8044;SDS011;4065;48.754;9.982;2024-03-06T16:21:47;70.50;;;34.65;;
8044;SDS011;4065;48.754;9.982;2024-03-06T16:25:10;74.50;;;37.70;;
8044;SDS011;4065;48.754;9.982;2024-03-06T16:28:34;73.82;;;35.83;;
8044;SDS011;4065;48.754;9.982;2024-03-06T16:31:56;72.65;;;33.60;;
8044;SDS011;4065;48.754;9.982;2024-03-06T16:35:20;76.18;;;35.25;;
8044;SDS011;4065;48.754;9.982;2024-03-06T16:38:42;71.88;;;36.70;;
8044;SDS011;4065;48.754;9.982;2024-03-06T16:42:07;74.82;;;37.38;;
8044;SDS011;4065;48.754;9.982;2024-03-06T16:45:32;75.07;;;37.58;;
8044;SDS011;4065;48.754;9.982;2024-03-06T16:48:54;73.30;;;36.70;;
8044;SDS011;4065;48.754;9.982;2024-03-06T16:52:18;79.93;;;37.85;;
8044;SDS011;4065;48.754;9.982;2024-03-06T16:55:42;78.70;;;37.50;;
8044;SDS011;4065;48.754;9.982;2024-03-06T16:59:06;72.65;;;36.80;;
8044;SDS011;4065;48.754;9.982;2024-03-06T17:02:28;72.05;;;35.10;;
8044;SDS011;4065;48.754;9.982;2024-03-06T17:05:50;70.88;;;35.47;;
8044;SDS011;4065;48.754;9.982;2024-03-06T17:09:13;74.25;;;36.08;;
8044;SDS011;4065;48.754;9.982;2024-03-06T17:12:35;80.78;;;39.33;;
8044;SDS011;4065;48.754;9.982;2024-03-06T17:15:57;70.35;;;38.20;;
8044;SDS011;4065;48.754;9.982;2024-03-06T17:19:19;77.22;;;38.47;;
8044;SDS011;4065;48.754;9.982;2024-03-06T17:22:41;78.93;;;35.83;;
8044;SDS011;4065;48.754;9.982;2024-03-06T17:26:04;77.35;;;38.33;;
8044;SDS011;4065;48.754;9.982;2024-03-06T17:29:25;79.75;;;39.80;;
8044;SDS011;4065;48.754;9.982;2024-03-06T17:32:47;75.63;;;37.33;;
8044;SDS011;4065;48.754;9.982;2024-03-06T17:36:12;72.15;;;36.47;;
8044;SDS011;4065;48.754;9.982;2024-03-06T17:39:35;83.22;;;38.28;;
8044;SDS011;4065;48.754;9.982;2024-03-06T17:42:59;78.82;;;36.25;;
8044;SDS011;4065;48.754;9.982;2024-03-06T17:46:20;70.88;;;37.17;;
8044;SDS011;4065;48.754;9.982;2024-03-06T17:49:42;74.43;;;37.97;;
8044;SDS011;4065;48.754;9.982;2024-03-06T17:53:04;76.78;;;37.38;;
8044;SDS011;4065;48.754;9.982;2024-03-06T17:56:27;80.82;;;39.67;;
8044;SDS011;4065;48.754;9.982;2024-03-06T17:59:50;79.38;;;41.03;;
8044;SDS011;4065;48.754;9.982;2024-03-06T18:03:12;85.28;;;39.95;;
8044;SDS011;4065;48.754;9.982;2024-03-06T18:06:34;81.65;;;39.13;;
8044;SDS011;4065;48.754;9.982;2024-03-06T18:09:56;74.63;;;38.30;;
8044;SDS011;4065;48.754;9.982;2024-03-06T18:13:17;76.32;;;36.67;;
8044;SDS011;4065;48.754;9.982;2024-03-06T18:16:42;70.95;;;36.03;;
8044;SDS011;4065;48.754;9.982;2024-03-06T18:20:05;75.60;;;36.67;;
8044;SDS011;4065;48.754;9.982;2024-03-06T18:23:28;79.82;;;39.13;;
8044;SDS011;4065;48.754;9.982;2024-03-06T18:26:49;99.68;;;47.42;;
8044;SDS011;4065;48.754;9.982;2024-03-06T18:30:11;92.47;;;47.50;;
8044;SDS011;4065;48.754;9.982;2024-03-06T18:33:34;83.60;;;39.97;;
8044;SDS011;4065;48.754;9.982;2024-03-06T18:36:56;79.53;;;39.55;;
8044;SDS011;4065;48.754;9.982;2024-03-06T18:40:18;83.55;;;37.67;;
8044;SDS011;4065;48.754;9.982;2024-03-06T18:43:40;80.70;;;39.80;;
8044;SDS011;4065;48.754;9.982;2024-03-06T18:47:01;79.55;;;39.35;;
8044;SDS011;4065;48.754;9.982;2024-03-06T18:50:25;84.63;;;38.95;;
8044;SDS011;4065;48.754;9.982;2024-03-06T18:53:46;76.35;;;38.20;;
8044;SDS011;4065;48.754;9.982;2024-03-06T18:57:10;83.13;;;38.22;;
8044;SDS011;4065;48.754;9.982;2024-03-06T19:00:31;78.13;;;38.25;;
8044;SDS011;4065;48.754;9.982;2024-03-06T19:03:54;81.80;;;40.70;;
8044;SDS011;4065;48.754;9.982;2024-03-06T19:07:17;81.15;;;39.05;;
8044;SDS011;4065;48.754;9.982;2024-03-06T19:10:39;84.88;;;42.40;;
8044;SDS011;4065;48.754;9.982;2024-03-06T19:14:00;82.35;;;40.53;;
8044;SDS011;4065;48.754;9.982;2024-03-06T19:17:22;81.25;;;38.58;;
8044;SDS011;4065;48.754;9.982;2024-03-06T19:20:44;92.88;;;42.97;;
8044;SDS011;4065;48.754;9.982;2024-03-06T19:24:07;106.57;;;51.63;;
8044;SDS011;4065;48.754;9.982;2024-03-06T19:27:28;87.85;;;41.55;;
8044;SDS011;4065;48.754;9.982;2024-03-06T19:30:50;89.53;;;38.33;;
8044;SDS011;4065;48.754;9.982;2024-03-06T19:34:13;80.55;;;40.15;;
8044;SDS011;4065;48.754;9.982;2024-03-06T19:37:36;80.90;;;39.72;;
8044;SDS011;4065;48.754;9.982;2024-03-06T19:41:00;121.90;;;63.28;;
8044;SDS011;4065;48.754;9.982;2024-03-06T19:44:22;92.30;;;42.92;;
8044;SDS011;4065;48.754;9.982;2024-03-06T19:47:46;84.00;;;38.97;;
8044;SDS011;4065;48.754;9.982;2024-03-06T19:51:08;111.47;;;48.30;;
8044;SDS011;4065;48.754;9.982;2024-03-06T19:54:30;81.50;;;40.80;;
8044;SDS011;4065;48.754;9.982;2024-03-06T19:57:54;86.05;;;39.22;;
8044;SDS011;4065;48.754;9.982;2024-03-06T20:01:16;80.82;;;38.88;;
8044;SDS011;4065;48.754;9.982;2024-03-06T20:04:37;72.03;;;38.10;;
8044;SDS011;4065;48.754;9.982;2024-03-06T20:07:59;75.53;;;36.40;;
8044;SDS011;4065;48.754;9.982;2024-03-06T20:11:21;74.15;;;37.33;;
8044;SDS011;4065;48.754;9.982;2024-03-06T20:14:46;76.68;;;39.47;;
8044;SDS011;4065;48.754;9.982;2024-03-06T20:18:07;74.90;;;38.92;;
8044;SDS011;4065;48.754;9.982;2024-03-06T20:21:30;81.18;;;41.08;;
8044;SDS011;4065;48.754;9.982;2024-03-06T20:24:52;68.75;;;35.75;;
8044;SDS011;4065;48.754;9.982;2024-03-06T20:28:14;79.95;;;43.15;;